sensor_id;sensor_type;location;lat;lon;timestamp;P1;durP1;ratioP1;P2;durP2;ratioP2
14381;SDS011;7275;50.328;8.720;2022-11-04T00:00:20;5.67;;;5.07;;
14381;SDS011;7275;50.328;8.720;2022-11-04T00:02:56;6.23;;;5.40;;
14381;SDS011;7275;50.328;8.720;2022-11-04T00:05:24;5.83;;;5.20;;
14381;SDS011;7275;50.328;8.720;2022-11-04T00:07:52;5.57;;;5.00;;
14381;SDS011;7275;50.328;8.720;2022-11-04T00:10:37;5.37;;;4.90;;
14381;SDS011;7275;50.328;8.720;2022-11-04T00:13:22;6.07;;;4.50;;
14381;SDS011;7275;50.328;8.720;2022-11-04T00:15:49;6.83;;;5.23;;
14381;SDS011;7275;50.328;8.720;2022-11-04T00:18:36;5.57;;;4.47;;
14381;SDS011;7275;50.328;8.720;2022-11-04T00:21:04;5.37;;;4.60;;
14381;SDS011;7275;50.328;8.720;2022-11-04T00:23:49;4.83;;;4.33;;
14381;SDS011;7275;50.328;8.720;2022-11-04T00:26:34;5.47;;;4.83;;
14381;SDS011;7275;50.328;8.720;2022-11-04T00:29:19;5.43;;;4.57;;
14381;SDS011;7275;50.328;8.720;2022-11-04T00:31:47;6.10;;;5.23;;
14381;SDS011;7275;50.328;8.720;2022-11-04T00:34:33;5.47;;;4.97;;
14381;SDS011;7275;50.328;8.720;2022-11-04T00:37:01;5.77;;;5.17;;
14381;SDS011;7275;50.328;8.720;2022-11-04T00:39:28;6.93;;;5.50;;
14381;SDS011;7275;50.328;8.720;2022-11-04T00:41:56;6.73;;;4.83;;
14381;SDS011;7275;50.328;8.720;2022-11-04T00:44:23;5.40;;;4.90;;
14381;SDS011;7275;50.328;8.720;2022-11-04T00:46:51;6.67;;;4.80;;
14381;SDS011;7275;50.328;8.720;2022-11-04T00:49:18;5.03;;;4.53;;
14381;SDS011;7275;50.328;8.720;2022-11-04T00:51:47;7.50;;;5.00;;
14381;SDS011;7275;50.328;8.720;2022-11-04T00:54:15;5.63;;;4.97;;
14381;SDS011;7275;50.328;8.720;2022-11-04T00:56:42;5.93;;;4.70;;
14381;SDS011;7275;50.328;8.720;2022-11-04T00:59:09;6.20;;;5.17;;
14381;SDS011;7275;50.328;8.720;2022-11-04T01:01:40;5.27;;;4.50;;
14381;SDS011;7275;50.328;8.720;2022-11-04T01:04:08;5.60;;;4.70;;
14381;SDS011;7275;50.328;8.720;2022-11-04T01:06:36;4.67;;;4.10;;
14381;SDS011;7275;50.328;8.720;2022-11-04T01:09:05;4.40;;;3.83;;
14381;SDS011;7275;50.328;8.720;2022-11-04T01:11:34;4.63;;;3.87;;
14381;SDS011;7275;50.328;8.720;2022-11-04T01:14:01;4.63;;;3.87;;
14381;SDS011;7275;50.328;8.720;2022-11-04T01:16:29;4.53;;;4.13;;
14381;SDS011;7275;50.328;8.720;2022-11-04T01:18:57;4.37;;;3.83;;
14381;SDS011;7275;50.328;8.720;2022-11-04T01:21:25;6.00;;;4.00;;
14381;SDS011;7275;50.328;8.720;2022-11-04T01:23:52;4.27;;;3.87;;
14381;SDS011;7275;50.328;8.720;2022-11-04T01:26:22;3.93;;;3.57;;
14381;SDS011;7275;50.328;8.720;2022-11-04T01:28:51;4.17;;;3.77;;
14381;SDS011;7275;50.328;8.720;2022-11-04T01:31:20;3.40;;;3.10;;
14381;SDS011;7275;50.328;8.720;2022-11-04T01:33:50;3.77;;;3.37;;
14381;SDS011;7275;50.328;8.720;2022-11-04T01:36:19;3.37;;;2.93;;
14381;SDS011;7275;50.328;8.720;2022-11-04T01:38:47;3.37;;;3.03;;
14381;SDS011;7275;50.328;8.720;2022-11-04T01:41:16;3.20;;;2.67;;
14381;SDS011;7275;50.328;8.720;2022-11-04T01:43:48;3.07;;;2.73;;
14381;SDS011;7275;50.328;8.720;2022-11-04T01:46:25;3.23;;;2.93;;
14381;SDS011;7275;50.328;8.720;2022-11-04T01:48:58;4.00;;;2.50;;
14381;SDS011;7275;50.328;8.720;2022-11-04T01:51:30;3.00;;;2.50;;
14381;SDS011;7275;50.328;8.720;2022-11-04T01:54:00;3.33;;;2.50;;
14381;SDS011;7275;50.328;8.720;2022-11-04T01:56:29;2.53;;;2.30;;
14381;SDS011;7275;50.328;8.720;2022-11-04T01:59:02;2.43;;;2.00;;
14381;SDS011;7275;50.328;8.720;2022-11-04T02:01:34;1.90;;;1.80;;
14381;SDS011;7275;50.328;8.720;2022-11-04T02:04:02;1.90;;;1.70;;
14381;SDS011;7275;50.328;8.720;2022-11-04T02:06:44;1.67;;;1.57;;
14381;SDS011;7275;50.328;8.720;2022-11-04T02:09:13;2.20;;;1.27;;
14381;SDS011;7275;50.328;8.720;2022-11-04T02:11:43;1.37;;;1.10;;
14381;SDS011;7275;50.328;8.720;2022-11-04T02:14:26;0.90;;;0.90;;
14381;SDS011;7275;50.328;8.720;2022-11-04T02:16:54;0.80;;;0.80;;
14381;SDS011;7275;50.328;8.720;2022-11-04T02:25:30;0.60;;;0.60;;
14381;SDS011;7275;50.328;8.720;2022-11-04T02:28:46;1.07;;;0.80;;
14381;SDS011;7275;50.328;8.720;2022-11-04T02:31:24;0.70;;;0.70;;
14381;SDS011;7275;50.328;8.720;2022-11-04T02:34:00;0.50;;;0.50;;
14381;SDS011;7275;50.328;8.720;2022-11-04T02:36:38;0.90;;;0.70;;
14381;SDS011;7275;50.328;8.720;2022-11-04T02:39:15;1.13;;;0.90;;
14381;SDS011;7275;50.328;8.720;2022-11-04T02:41:54;1.00;;;0.80;;
14381;SDS011;7275;50.328;8.720;2022-11-04T02:44:26;0.60;;;0.60;;
14381;SDS011;7275;50.328;8.720;2022-11-04T02:47:01;3.23;;;0.90;;
14381;SDS011;7275;50.328;8.720;2022-11-04T02:49:33;0.70;;;0.70;;
14381;SDS011;7275;50.328;8.720;2022-11-04T02:52:10;1.10;;;1.00;;
14381;SDS011;7275;50.328;8.720;2022-11-04T02:54:41;0.70;;;0.70;;
14381;SDS011;7275;50.328;8.720;2022-11-04T02:57:14;1.67;;;0.70;;
14381;SDS011;7275;50.328;8.720;2022-11-04T02:59:46;1.23;;;0.80;;
14381;SDS011;7275;50.328;8.720;2022-11-04T03:02:21;0.70;;;0.70;;
14381;SDS011;7275;50.328;8.720;2022-11-04T03:04:53;2.87;;;0.90;;
14381;SDS011;7275;50.328;8.720;2022-11-04T03:07:23;0.80;;;0.80;;
14381;SDS011;7275;50.328;8.720;2022-11-04T03:09:56;1.97;;;0.90;;
14381;SDS011;7275;50.328;8.720;2022-11-04T03:12:28;0.90;;;0.90;;
14381;SDS011;7275;50.328;8.720;2022-11-04T03:15:00;2.27;;;1.20;;
14381;SDS011;7275;50.328;8.720;2022-11-04T03:17:32;1.60;;;1.20;;
14381;SDS011;7275;50.328;8.720;2022-11-04T03:20:05;1.20;;;1.10;;
14381;SDS011;7275;50.328;8.720;2022-11-04T03:22:38;1.67;;;1.10;;
14381;SDS011;7275;50.328;8.720;2022-11-04T03:25:06;1.23;;;1.00;;
14381;SDS011;7275;50.328;8.720;2022-11-04T03:27:37;1.00;;;0.90;;
14381;SDS011;7275;50.328;8.720;2022-11-04T03:30:13;1.37;;;0.80;;
14381;SDS011;7275;50.328;8.720;2022-11-04T03:32:45;0.93;;;0.90;;
14381;SDS011;7275;50.328;8.720;2022-11-04T03:35:20;0.80;;;0.80;;
14381;SDS011;7275;50.328;8.720;2022-11-04T03:37:47;1.17;;;0.80;;
14381;SDS011;7275;50.328;8.720;2022-11-04T03:40:15;1.90;;;0.80;;
14381;SDS011;7275;50.328;8.720;2022-11-04T03:42:45;1.00;;;0.90;;
14381;SDS011;7275;50.328;8.720;2022-11-04T03:45:19;2.80;;;0.90;;
14381;SDS011;7275;50.328;8.720;2022-11-04T03:47:48;0.87;;;0.70;;
14381;SDS011;7275;50.328;8.720;2022-11-04T03:50:17;1.20;;;0.80;;
14381;SDS011;7275;50.328;8.720;2022-11-04T03:52:52;0.97;;;0.70;;
14381;SDS011;7275;50.328;8.720;2022-11-04T03:55:20;0.60;;;0.60;;
14381;SDS011;7275;50.328;8.720;2022-11-04T03:57:51;1.50;;;0.70;;
14381;SDS011;7275;50.328;8.720;2022-11-04T04:00:23;1.40;;;0.80;;
14381;SDS011;7275;50.328;8.720;2022-11-04T04:03:00;0.60;;;0.60;;
14381;SDS011;7275;50.328;8.720;2022-11-04T04:05:33;1.17;;;0.70;;
14381;SDS011;7275;50.328;8.720;2022-11-04T04:08:09;1.77;;;0.70;;
14381;SDS011;7275;50.328;8.720;2022-11-04T04:10:42;1.23;;;0.73;;
14381;SDS011;7275;50.328;8.720;2022-11-04T04:13:20;1.17;;;0.70;;
14381;SDS011;7275;50.328;8.720;2022-11-04T04:15:56;0.63;;;0.63;;
14381;SDS011;7275;50.328;8.720;2022-11-04T04:18:29;1.47;;;0.70;;
14381;SDS011;7275;50.328;8.720;2022-11-04T04:21:03;0.70;;;0.60;;
14381;SDS011;7275;50.328;8.720;2022-11-04T04:23:34;0.90;;;0.70;;
14381;SDS011;7275;50.328;8.720;2022-11-04T04:26:21;0.70;;;0.70;;
14381;SDS011;7275;50.328;8.720;2022-11-04T04:29:08;1.10;;;0.70;;
14381;SDS011;7275;50.328;8.720;2022-11-04T04:31:37;0.87;;;0.80;;
14381;SDS011;7275;50.328;8.720;2022-11-04T04:34:17;1.50;;;0.67;;
14381;SDS011;7275;50.328;8.720;2022-11-04T04:36:49;1.50;;;0.80;;
14381;SDS011;7275;50.328;8.720;2022-11-04T04:39:21;0.93;;;0.73;;
14381;SDS011;7275;50.328;8.720;2022-11-04T04:42:08;0.93;;;0.90;;
14381;SDS011;7275;50.328;8.720;2022-11-04T04:44:54;1.30;;;0.90;;
14381;SDS011;7275;50.328;8.720;2022-11-04T04:47:33;0.80;;;0.70;;
14381;SDS011;7275;50.328;8.720;2022-11-04T04:50:07;0.80;;;0.80;;
14381;SDS011;7275;50.328;8.720;2022-11-04T04:52:36;1.03;;;0.90;;
14381;SDS011;7275;50.328;8.720;2022-11-04T04:55:06;1.27;;;0.93;;
14381;SDS011;7275;50.328;8.720;2022-11-04T04:57:34;1.33;;;1.00;;
14381;SDS011;7275;50.328;8.720;2022-11-04T05:00:03;1.47;;;1.00;;
14381;SDS011;7275;50.328;8.720;2022-11-04T05:02:31;1.27;;;1.10;;
14381;SDS011;7275;50.328;8.720;2022-11-04T05:04:59;1.40;;;0.90;;
14381;SDS011;7275;50.328;8.720;2022-11-04T05:07:28;1.17;;;1.07;;
14381;SDS011;7275;50.328;8.720;2022-11-04T05:09:56;1.00;;;0.90;;
14381;SDS011;7275;50.328;8.720;2022-11-04T05:12:23;1.00;;;0.90;;
14381;SDS011;7275;50.328;8.720;2022-11-04T05:14:51;1.20;;;0.90;;
14381;SDS011;7275;50.328;8.720;2022-11-04T05:17:18;1.23;;;1.00;;
14381;SDS011;7275;50.328;8.720;2022-11-04T05:19:45;2.23;;;0.90;;
14381;SDS011;7275;50.328;8.720;2022-11-04T05:22:13;0.80;;;0.80;;
14381;SDS011;7275;50.328;8.720;2022-11-04T05:24:42;1.23;;;0.90;;
14381;SDS011;7275;50.328;8.720;2022-11-04T05:27:09;0.80;;;0.80;;
14381;SDS011;7275;50.328;8.720;2022-11-04T05:29:37;1.20;;;1.10;;
14381;SDS011;7275;50.328;8.720;2022-11-04T05:32:04;1.17;;;0.90;;
14381;SDS011;7275;50.328;8.720;2022-11-04T05:34:32;2.40;;;1.10;;
14381;SDS011;7275;50.328;8.720;2022-11-04T05:36:59;1.60;;;1.10;;
14381;SDS011;7275;50.328;8.720;2022-11-04T05:39:27;1.87;;;1.13;;
14381;SDS011;7275;50.328;8.720;2022-11-04T05:41:56;1.67;;;1.20;;
14381;SDS011;7275;50.328;8.720;2022-11-04T05:44:23;1.97;;;1.20;;
14381;SDS011;7275;50.328;8.720;2022-11-04T05:46:51;1.57;;;1.00;;
14381;SDS011;7275;50.328;8.720;2022-11-04T05:49:18;1.13;;;1.03;;
14381;SDS011;7275;50.328;8.720;2022-11-04T05:51:46;1.77;;;1.10;;
14381;SDS011;7275;50.328;8.720;2022-11-04T05:54:13;1.07;;;0.90;;
14381;SDS011;7275;50.328;8.720;2022-11-04T05:56:41;1.47;;;1.03;;
14381;SDS011;7275;50.328;8.720;2022-11-04T05:59:10;2.47;;;1.00;;
14381;SDS011;7275;50.328;8.720;2022-11-04T06:01:38;1.60;;;1.10;;
14381;SDS011;7275;50.328;8.720;2022-11-04T06:04:08;3.27;;;1.10;;
14381;SDS011;7275;50.328;8.720;2022-11-04T06:06:40;2.43;;;1.20;;
14381;SDS011;7275;50.328;8.720;2022-11-04T06:09:08;1.53;;;1.10;;
14381;SDS011;7275;50.328;8.720;2022-11-04T06:11:36;1.07;;;0.90;;
14381;SDS011;7275;50.328;8.720;2022-11-04T06:14:04;1.10;;;0.97;;
14381;SDS011;7275;50.328;8.720;2022-11-04T06:16:33;2.97;;;1.10;;
14381;SDS011;7275;50.328;8.720;2022-11-04T06:19:00;1.83;;;1.00;;
14381;SDS011;7275;50.328;8.720;2022-11-04T06:21:35;1.80;;;0.90;;
14381;SDS011;7275;50.328;8.720;2022-11-04T06:24:03;1.93;;;1.10;;
14381;SDS011;7275;50.328;8.720;2022-11-04T06:26:31;1.30;;;1.10;;
14381;SDS011;7275;50.328;8.720;2022-11-04T06:28:58;1.77;;;1.10;;
14381;SDS011;7275;50.328;8.720;2022-11-04T06:31:26;2.97;;;1.30;;
14381;SDS011;7275;50.328;8.720;2022-11-04T06:33:55;1.43;;;0.97;;
14381;SDS011;7275;50.328;8.720;2022-11-04T06:36:22;1.63;;;1.10;;
14381;SDS011;7275;50.328;8.720;2022-11-04T06:38:50;1.27;;;1.17;;
14381;SDS011;7275;50.328;8.720;2022-11-04T06:41:17;2.20;;;0.97;;
14381;SDS011;7275;50.328;8.720;2022-11-04T06:43:45;1.47;;;1.07;;
14381;SDS011;7275;50.328;8.720;2022-11-04T06:46:25;1.30;;;1.20;;
14381;SDS011;7275;50.328;8.720;2022-11-04T06:48:55;2.40;;;1.10;;
14381;SDS011;7275;50.328;8.720;2022-11-04T06:51:23;2.13;;;1.17;;
14381;SDS011;7275;50.328;8.720;2022-11-04T06:53:51;4.47;;;1.20;;
14381;SDS011;7275;50.328;8.720;2022-11-04T06:56:18;2.87;;;1.30;;
14381;SDS011;7275;50.328;8.720;2022-11-04T06:58:46;2.20;;;1.10;;
14381;SDS011;7275;50.328;8.720;2022-11-04T07:01:14;1.60;;;1.37;;
14381;SDS011;7275;50.328;8.720;2022-11-04T07:03:48;1.60;;;1.13;;
14381;SDS011;7275;50.328;8.720;2022-11-04T07:06:18;2.27;;;1.17;;
14381;SDS011;7275;50.328;8.720;2022-11-04T07:08:46;3.10;;;1.37;;
14381;SDS011;7275;50.328;8.720;2022-11-04T07:11:15;1.87;;;1.40;;
14381;SDS011;7275;50.328;8.720;2022-11-04T07:13:43;2.43;;;1.30;;
14381;SDS011;7275;50.328;8.720;2022-11-04T07:16:11;2.10;;;1.30;;
14381;SDS011;7275;50.328;8.720;2022-11-04T07:18:39;3.03;;;1.30;;
14381;SDS011;7275;50.328;8.720;2022-11-04T07:21:06;1.83;;;1.17;;
14381;SDS011;7275;50.328;8.720;2022-11-04T07:23:37;3.27;;;1.17;;
14381;SDS011;7275;50.328;8.720;2022-11-04T07:26:06;1.80;;;1.30;;
14381;SDS011;7275;50.328;8.720;2022-11-04T07:28:34;2.13;;;1.30;;
14381;SDS011;7275;50.328;8.720;2022-11-04T07:31:02;2.37;;;1.40;;
14381;SDS011;7275;50.328;8.720;2022-11-04T07:33:31;3.63;;;1.30;;
14381;SDS011;7275;50.328;8.720;2022-11-04T07:36:01;2.93;;;1.50;;
14381;SDS011;7275;50.328;8.720;2022-11-04T07:38:31;1.60;;;1.43;;
14381;SDS011;7275;50.328;8.720;2022-11-04T07:41:00;3.30;;;1.63;;
14381;SDS011;7275;50.328;8.720;2022-11-04T07:43:28;2.73;;;1.57;;
14381;SDS011;7275;50.328;8.720;2022-11-04T07:45:59;2.13;;;1.57;;
14381;SDS011;7275;50.328;8.720;2022-11-04T07:48:27;2.73;;;1.50;;
14381;SDS011;7275;50.328;8.720;2022-11-04T07:50:55;4.40;;;1.50;;
14381;SDS011;7275;50.328;8.720;2022-11-04T07:53:23;3.40;;;1.70;;
14381;SDS011;7275;50.328;8.720;2022-11-04T07:55:51;3.40;;;1.40;;
14381;SDS011;7275;50.328;8.720;2022-11-04T07:58:20;2.20;;;1.20;;
14381;SDS011;7275;50.328;8.720;2022-11-04T08:00:48;3.13;;;1.57;;
14381;SDS011;7275;50.328;8.720;2022-11-04T08:03:16;1.93;;;1.50;;
14381;SDS011;7275;50.328;8.720;2022-11-04T08:05:44;2.10;;;1.30;;
14381;SDS011;7275;50.328;8.720;2022-11-04T08:08:11;3.50;;;1.57;;
14381;SDS011;7275;50.328;8.720;2022-11-04T08:10:39;2.97;;;1.23;;
14381;SDS011;7275;50.328;8.720;2022-11-04T08:13:06;2.57;;;1.50;;
14381;SDS011;7275;50.328;8.720;2022-11-04T08:15:36;2.60;;;1.40;;
14381;SDS011;7275;50.328;8.720;2022-11-04T08:18:04;2.63;;;1.37;;
14381;SDS011;7275;50.328;8.720;2022-11-04T08:20:31;2.17;;;1.30;;
14381;SDS011;7275;50.328;8.720;2022-11-04T08:22:58;2.47;;;1.40;;
14381;SDS011;7275;50.328;8.720;2022-11-04T08:25:26;2.27;;;1.40;;
14381;SDS011;7275;50.328;8.720;2022-11-04T08:27:53;2.47;;;1.37;;
14381;SDS011;7275;50.328;8.720;2022-11-04T08:30:26;3.57;;;1.40;;
14381;SDS011;7275;50.328;8.720;2022-11-04T08:32:55;1.67;;;1.30;;
14381;SDS011;7275;50.328;8.720;2022-11-04T08:35:22;3.13;;;1.60;;
14381;SDS011;7275;50.328;8.720;2022-11-04T08:37:49;2.73;;;1.70;;
14381;SDS011;7275;50.328;8.720;2022-11-04T08:40:17;2.40;;;1.40;;
14381;SDS011;7275;50.328;8.720;2022-11-04T08:42:45;2.80;;;1.53;;
14381;SDS011;7275;50.328;8.720;2022-11-04T08:45:12;5.57;;;1.70;;
14381;SDS011;7275;50.328;8.720;2022-11-04T08:47:40;3.03;;;1.30;;
14381;SDS011;7275;50.328;8.720;2022-11-04T08:50:09;3.37;;;1.50;;
14381;SDS011;7275;50.328;8.720;2022-11-04T08:52:37;2.53;;;1.70;;
14381;SDS011;7275;50.328;8.720;2022-11-04T08:55:05;2.60;;;1.60;;
14381;SDS011;7275;50.328;8.720;2022-11-04T08:57:36;2.73;;;1.67;;
14381;SDS011;7275;50.328;8.720;2022-11-04T09:00:04;2.00;;;1.50;;
14381;SDS011;7275;50.328;8.720;2022-11-04T09:02:32;2.83;;;1.50;;
14381;SDS011;7275;50.328;8.720;2022-11-04T09:05:00;3.30;;;1.67;;
14381;SDS011;7275;50.328;8.720;2022-11-04T09:07:29;2.73;;;1.60;;
14381;SDS011;7275;50.328;8.720;2022-11-04T09:09:57;2.13;;;1.50;;
14381;SDS011;7275;50.328;8.720;2022-11-04T09:12:24;3.50;;;1.60;;
14381;SDS011;7275;50.328;8.720;2022-11-04T09:14:52;3.63;;;1.50;;
14381;SDS011;7275;50.328;8.720;2022-11-04T09:17:19;3.03;;;1.60;;
14381;SDS011;7275;50.328;8.720;2022-11-04T09:19:47;3.23;;;1.80;;
14381;SDS011;7275;50.328;8.720;2022-11-04T09:22:14;3.17;;;1.80;;
14381;SDS011;7275;50.328;8.720;2022-11-04T09:24:44;4.17;;;1.70;;
14381;SDS011;7275;50.328;8.720;2022-11-04T09:27:11;2.33;;;1.57;;
14381;SDS011;7275;50.328;8.720;2022-11-04T09:29:39;3.90;;;1.70;;
14381;SDS011;7275;50.328;8.720;2022-11-04T09:32:07;3.33;;;1.63;;
14381;SDS011;7275;50.328;8.720;2022-11-04T09:34:34;4.53;;;1.97;;
14381;SDS011;7275;50.328;8.720;2022-11-04T09:37:02;5.13;;;1.80;;
14381;SDS011;7275;50.328;8.720;2022-11-04T09:39:30;3.10;;;1.67;;
14381;SDS011;7275;50.328;8.720;2022-11-04T09:42:04;3.63;;;1.63;;
14381;SDS011;7275;50.328;8.720;2022-11-04T09:44:39;2.97;;;1.97;;
14381;SDS011;7275;50.328;8.720;2022-11-04T09:47:34;4.43;;;2.00;;
14381;SDS011;7275;50.328;8.720;2022-11-04T09:50:05;2.63;;;1.50;;
14381;SDS011;7275;50.328;8.720;2022-11-04T09:52:37;2.20;;;1.70;;
14381;SDS011;7275;50.328;8.720;2022-11-04T09:55:10;2.43;;;1.60;;
14381;SDS011;7275;50.328;8.720;2022-11-04T09:57:44;3.60;;;1.80;;
14381;SDS011;7275;50.328;8.720;2022-11-04T10:00:13;4.10;;;1.77;;
14381;SDS011;7275;50.328;8.720;2022-11-04T10:02:45;2.67;;;1.63;;
14381;SDS011;7275;50.328;8.720;2022-11-04T10:05:28;2.97;;;1.77;;
14381;SDS011;7275;50.328;8.720;2022-11-04T10:08:13;4.13;;;1.97;;
14381;SDS011;7275;50.328;8.720;2022-11-04T10:10:53;4.20;;;1.97;;
14381;SDS011;7275;50.328;8.720;2022-11-04T10:13:30;4.10;;;2.00;;
14381;SDS011;7275;50.328;8.720;2022-11-04T10:16:09;4.00;;;2.10;;
14381;SDS011;7275;50.328;8.720;2022-11-04T10:19:07;4.23;;;1.97;;
14381;SDS011;7275;50.328;8.720;2022-11-04T10:21:44;4.43;;;1.73;;
14381;SDS011;7275;50.328;8.720;2022-11-04T10:24:23;4.30;;;1.93;;
14381;SDS011;7275;50.328;8.720;2022-11-04T10:26:58;3.93;;;1.93;;
14381;SDS011;7275;50.328;8.720;2022-11-04T10:29:31;3.20;;;1.90;;
14381;SDS011;7275;50.328;8.720;2022-11-04T10:32:05;3.33;;;1.80;;
14381;SDS011;7275;50.328;8.720;2022-11-04T10:34:47;3.93;;;1.87;;
14381;SDS011;7275;50.328;8.720;2022-11-04T10:37:22;2.33;;;1.70;;
14381;SDS011;7275;50.328;8.720;2022-11-04T10:39:51;3.63;;;1.93;;
14381;SDS011;7275;50.328;8.720;2022-11-04T10:42:26;4.33;;;2.03;;
14381;SDS011;7275;50.328;8.720;2022-11-04T10:44:55;2.37;;;1.60;;
14381;SDS011;7275;50.328;8.720;2022-11-04T10:47:26;2.17;;;1.43;;
14381;SDS011;7275;50.328;8.720;2022-11-04T10:50:02;3.90;;;2.00;;
14381;SDS011;7275;50.328;8.720;2022-11-04T10:53:01;2.90;;;1.90;;
14381;SDS011;7275;50.328;8.720;2022-11-04T10:55:38;3.00;;;1.57;;
14381;SDS011;7275;50.328;8.720;2022-11-04T10:58:15;2.88;;;1.40;;
14381;SDS011;7275;50.328;8.720;2022-11-04T11:00:47;3.80;;;1.58;;
14381;SDS011;7275;50.328;8.720;2022-11-04T11:03:23;3.60;;;1.60;;
14381;SDS011;7275;50.328;8.720;2022-11-04T11:05:53;2.30;;;1.40;;
14381;SDS011;7275;50.328;8.720;2022-11-04T11:08:37;2.47;;;1.40;;
14381;SDS011;7275;50.328;8.720;2022-11-04T11:11:05;3.22;;;1.58;;
14381;SDS011;7275;50.328;8.720;2022-11-04T11:13:34;2.22;;;1.40;;
14381;SDS011;7275;50.328;8.720;2022-11-04T11:16:06;2.30;;;1.30;;
14381;SDS011;7275;50.328;8.720;2022-11-04T11:18:37;2.03;;;1.40;;
14381;SDS011;7275;50.328;8.720;2022-11-04T11:21:08;2.30;;;1.30;;
14381;SDS011;7275;50.328;8.720;2022-11-04T11:23:40;3.42;;;1.40;;
14381;SDS011;7275;50.328;8.720;2022-11-04T11:26:10;3.15;;;1.38;;
14381;SDS011;7275;50.328;8.720;2022-11-04T11:28:40;3.15;;;1.42;;
14381;SDS011;7275;50.328;8.720;2022-11-04T11:31:15;3.08;;;1.48;;
14381;SDS011;7275;50.328;8.720;2022-11-04T11:33:49;2.28;;;1.40;;
14381;SDS011;7275;50.328;8.720;2022-11-04T11:36:21;1.98;;;1.38;;
14381;SDS011;7275;50.328;8.720;2022-11-04T11:39:02;2.33;;;1.42;;
14381;SDS011;7275;50.328;8.720;2022-11-04T11:41:34;2.70;;;1.17;;
14381;SDS011;7275;50.328;8.720;2022-11-04T11:44:20;2.72;;;1.35;;
14381;SDS011;7275;50.328;8.720;2022-11-04T11:46:55;3.35;;;1.50;;
14381;SDS011;7275;50.328;8.720;2022-11-04T11:49:27;1.75;;;1.23;;
14381;SDS011;7275;50.328;8.720;2022-11-04T11:52:15;3.38;;;1.55;;
14381;SDS011;7275;50.328;8.720;2022-11-04T11:54:51;3.15;;;1.30;;
14381;SDS011;7275;50.328;8.720;2022-11-04T11:57:25;2.17;;;1.25;;
14381;SDS011;7275;50.328;8.720;2022-11-04T12:00:00;2.28;;;1.27;;
14381;SDS011;7275;50.328;8.720;2022-11-04T12:02:54;4.63;;;1.30;;
14381;SDS011;7275;50.328;8.720;2022-11-04T12:05:26;1.92;;;1.30;;
14381;SDS011;7275;50.328;8.720;2022-11-04T12:08:27;2.13;;;1.13;;
14381;SDS011;7275;50.328;8.720;2022-11-04T12:11:25;1.75;;;1.00;;
14381;SDS011;7275;50.328;8.720;2022-11-04T12:14:00;1.95;;;1.10;;
14381;SDS011;7275;50.328;8.720;2022-11-04T12:16:32;1.33;;;1.10;;
14381;SDS011;7275;50.328;8.720;2022-11-04T12:19:19;2.35;;;1.40;;
14381;SDS011;7275;50.328;8.720;2022-11-04T12:22:01;2.42;;;1.20;;
14381;SDS011;7275;50.328;8.720;2022-11-04T12:24:37;1.80;;;1.17;;
14381;SDS011;7275;50.328;8.720;2022-11-04T12:27:14;2.65;;;1.33;;
14381;SDS011;7275;50.328;8.720;2022-11-04T12:30:00;2.70;;;1.10;;
14381;SDS011;7275;50.328;8.720;2022-11-04T12:32:35;1.98;;;1.00;;
14381;SDS011;7275;50.328;8.720;2022-11-04T12:35:17;1.73;;;1.13;;
14381;SDS011;7275;50.328;8.720;2022-11-04T12:37:54;4.90;;;1.20;;
14381;SDS011;7275;50.328;8.720;2022-11-04T12:40:42;1.63;;;1.20;;
14381;SDS011;7275;50.328;8.720;2022-11-04T12:43:31;2.20;;;1.10;;
14381;SDS011;7275;50.328;8.720;2022-11-04T12:46:08;2.10;;;1.00;;
14381;SDS011;7275;50.328;8.720;2022-11-04T12:49:08;2.23;;;1.20;;
14381;SDS011;7275;50.328;8.720;2022-11-04T12:51:53;1.97;;;1.20;;
14381;SDS011;7275;50.328;8.720;2022-11-04T12:54:33;1.63;;;1.00;;
14381;SDS011;7275;50.328;8.720;2022-11-04T12:57:11;1.63;;;1.10;;
14381;SDS011;7275;50.328;8.720;2022-11-04T12:59:52;1.60;;;1.07;;
14381;SDS011;7275;50.328;8.720;2022-11-04T13:02:29;2.77;;;1.10;;
14381;SDS011;7275;50.328;8.720;2022-11-04T13:05:02;2.60;;;1.20;;
14381;SDS011;7275;50.328;8.720;2022-11-04T13:07:37;2.17;;;1.10;;
14381;SDS011;7275;50.328;8.720;2022-11-04T13:10:13;2.10;;;1.00;;
14381;SDS011;7275;50.328;8.720;2022-11-04T13:12:45;3.13;;;1.10;;
14381;SDS011;7275;50.328;8.720;2022-11-04T13:15:16;1.40;;;1.10;;
14381;SDS011;7275;50.328;8.720;2022-11-04T13:17:48;1.40;;;1.00;;
14381;SDS011;7275;50.328;8.720;2022-11-04T13:20:21;1.70;;;0.90;;
14381;SDS011;7275;50.328;8.720;2022-11-04T13:22:58;2.33;;;1.13;;
14381;SDS011;7275;50.328;8.720;2022-11-04T13:25:29;2.63;;;0.90;;
14381;SDS011;7275;50.328;8.720;2022-11-04T13:28:00;2.80;;;1.00;;
14381;SDS011;7275;50.328;8.720;2022-11-04T13:30:32;1.33;;;0.93;;
14381;SDS011;7275;50.328;8.720;2022-11-04T13:33:07;1.93;;;1.17;;
14381;SDS011;7275;50.328;8.720;2022-11-04T13:35:45;3.13;;;1.20;;
14381;SDS011;7275;50.328;8.720;2022-11-04T13:38:24;2.20;;;1.03;;
14381;SDS011;7275;50.328;8.720;2022-11-04T13:41:02;2.03;;;1.00;;
14381;SDS011;7275;50.328;8.720;2022-11-04T13:43:47;3.37;;;1.17;;
14381;SDS011;7275;50.328;8.720;2022-11-04T13:46:19;3.73;;;1.30;;
14381;SDS011;7275;50.328;8.720;2022-11-04T13:48:57;5.07;;;1.10;;
14381;SDS011;7275;50.328;8.720;2022-11-04T13:51:38;1.77;;;1.03;;
14381;SDS011;7275;50.328;8.720;2022-11-04T13:54:22;2.77;;;1.00;;
14381;SDS011;7275;50.328;8.720;2022-11-04T13:57:01;1.83;;;1.10;;
14381;SDS011;7275;50.328;8.720;2022-11-04T13:59:31;1.17;;;0.93;;
14381;SDS011;7275;50.328;8.720;2022-11-04T14:08:18;1.77;;;1.00;;
14381;SDS011;7275;50.328;8.720;2022-11-04T14:10:58;2.37;;;1.40;;
14381;SDS011;7275;50.328;8.720;2022-11-04T14:16:40;1.30;;;1.00;;
14381;SDS011;7275;50.328;8.720;2022-11-04T14:22:25;1.97;;;1.10;;
14381;SDS011;7275;50.328;8.720;2022-11-04T14:25:17;2.40;;;1.10;;
14381;SDS011;7275;50.328;8.720;2022-11-04T14:27:49;3.17;;;1.20;;
14381;SDS011;7275;50.328;8.720;2022-11-04T14:30:29;1.60;;;0.93;;
14381;SDS011;7275;50.328;8.720;2022-11-04T14:33:02;1.20;;;0.97;;
14381;SDS011;7275;50.328;8.720;2022-11-04T14:35:33;2.07;;;1.23;;
14381;SDS011;7275;50.328;8.720;2022-11-04T14:38:04;1.93;;;1.13;;
14381;SDS011;7275;50.328;8.720;2022-11-04T14:40:44;1.97;;;1.20;;
14381;SDS011;7275;50.328;8.720;2022-11-04T14:43:18;2.57;;;1.13;;
14381;SDS011;7275;50.328;8.720;2022-11-04T14:45:56;1.30;;;1.10;;
14381;SDS011;7275;50.328;8.720;2022-11-04T14:48:27;1.97;;;1.13;;
14381;SDS011;7275;50.328;8.720;2022-11-04T14:50:55;3.23;;;1.30;;
14381;SDS011;7275;50.328;8.720;2022-11-04T14:53:25;1.87;;;1.10;;
14381;SDS011;7275;50.328;8.720;2022-11-04T14:56:09;2.70;;;1.20;;
14381;SDS011;7275;50.328;8.720;2022-11-04T14:58:55;2.00;;;0.97;;
14381;SDS011;7275;50.328;8.720;2022-11-04T15:01:24;3.30;;;1.20;;
14381;SDS011;7275;50.328;8.720;2022-11-04T15:04:03;2.17;;;1.10;;
14381;SDS011;7275;50.328;8.720;2022-11-04T15:06:38;3.33;;;1.77;;
14381;SDS011;7275;50.328;8.720;2022-11-04T15:09:20;1.93;;;1.77;;
14381;SDS011;7275;50.328;8.720;2022-11-04T15:11:49;2.53;;;1.70;;
14381;SDS011;7275;50.328;8.720;2022-11-04T15:14:36;2.33;;;1.40;;
14381;SDS011;7275;50.328;8.720;2022-11-04T15:17:04;2.80;;;1.33;;
14381;SDS011;7275;50.328;8.720;2022-11-04T15:19:32;2.83;;;1.60;;
14381;SDS011;7275;50.328;8.720;2022-11-04T15:22:01;1.97;;;1.30;;
14381;SDS011;7275;50.328;8.720;2022-11-04T15:24:30;2.17;;;1.50;;
14381;SDS011;7275;50.328;8.720;2022-11-04T15:26:59;2.20;;;1.20;;
14381;SDS011;7275;50.328;8.720;2022-11-04T15:29:29;2.20;;;1.60;;
14381;SDS011;7275;50.328;8.720;2022-11-04T15:31:59;2.83;;;1.70;;
14381;SDS011;7275;50.328;8.720;2022-11-04T15:34:30;2.70;;;1.70;;
14381;SDS011;7275;50.328;8.720;2022-11-04T15:37:00;2.27;;;1.67;;
14381;SDS011;7275;50.328;8.720;2022-11-04T15:39:31;2.33;;;1.50;;
14381;SDS011;7275;50.328;8.720;2022-11-04T15:42:01;2.03;;;1.60;;
14381;SDS011;7275;50.328;8.720;2022-11-04T15:44:50;3.20;;;1.63;;
14381;SDS011;7275;50.328;8.720;2022-11-04T15:47:23;1.67;;;1.40;;
14381;SDS011;7275;50.328;8.720;2022-11-04T15:49:52;1.67;;;1.10;;
14381;SDS011;7275;50.328;8.720;2022-11-04T15:52:27;1.67;;;1.23;;